createdAt,value
2023-04-08T00:02:01.152Z,25.42
2023-04-08T00:04:34.312Z,26.27
2023-04-08T00:07:21.088Z,24.63
2023-04-08T00:09:54.209Z,24.77
2023-04-08T00:12:41.088Z,25.33
2023-04-08T00:15:14.202Z,24.70
2023-04-08T00:18:03.125Z,24.10
2023-04-08T00:20:36.344Z,24.20
2023-04-08T00:23:23.082Z,25.40
2023-04-08T00:25:56.218Z,26.88
2023-04-08T00:28:43.108Z,23.10
2023-04-08T00:31:16.495Z,23.67
2023-04-08T00:34:03.084Z,23.75
2023-04-08T00:36:36.287Z,24.48
2023-04-08T00:39:23.090Z,24.15
2023-04-08T00:41:57.652Z,24.88
2023-04-08T00:44:44.124Z,25.05
2023-04-08T00:47:22.244Z,24.88
2023-04-08T00:50:09.105Z,26.38
2023-04-08T00:52:42.214Z,24.83
2023-04-08T00:55:29.189Z,25.15
2023-04-08T00:58:03.231Z,25.55
2023-04-08T01:01:01.115Z,24.85
2023-04-08T01:03:49.257Z,25.05
2023-04-08T01:06:49.088Z,27.73
2023-04-08T01:09:33.096Z,28.23
2023-04-08T01:12:29.089Z,25.67
2023-04-08T01:15:11.548Z,26.48
2023-04-08T01:18:01.124Z,27.38
2023-04-08T01:20:45.100Z,27.63
2023-04-08T01:23:58.125Z,28.08
2023-04-08T01:26:46.130Z,29.48
2023-04-08T01:29:21.366Z,30.27
2023-04-08T01:32:10.122Z,31.42
2023-04-08T01:34:45.356Z,30.58
2023-04-08T01:37:35.109Z,28.05
2023-04-08T01:40:10.255Z,27.83
2023-04-08T01:43:00.146Z,28.27
2023-04-08T01:45:35.284Z,28.70
2023-04-08T01:48:23.103Z,30.15
2023-04-08T01:51:04.118Z,30.73
2023-04-08T01:54:01.120Z,28.27
2023-04-08T01:56:51.121Z,29.98
2023-04-08T01:59:31.745Z,28.33
2023-04-08T02:02:19.170Z,28.10
2023-04-08T02:05:02.870Z,26.65
2023-04-08T02:08:02.170Z,27.15
2023-04-08T02:10:49.108Z,29.08
2023-04-08T02:13:23.278Z,30.35
2023-04-08T02:16:18.159Z,28.27
2023-04-08T02:18:54.269Z,25.23
2023-04-08T02:21:53.116Z,24.52
2023-04-08T02:24:28.219Z,25.52
2023-04-08T02:27:17.139Z,25.13
2023-04-08T02:29:52.221Z,23.98
2023-04-08T02:32:41.212Z,25.90
2023-04-08T02:35:20.768Z,26.83
2023-04-08T02:38:07.105Z,24.08
2023-04-08T02:40:48.165Z,23.02
2023-04-08T02:43:41.130Z,24.17
2023-04-08T02:46:22.221Z,22.92
2023-04-08T02:49:09.135Z,24.17
2023-04-08T02:51:42.255Z,24.83
2023-04-08T02:54:29.131Z,24.48
2023-04-08T02:57:11.132Z,25.63
2023-04-08T03:00:05.135Z,25.75
2023-04-08T03:02:55.044Z,24.63
2023-04-08T03:05:28.344Z,23.70
2023-04-08T03:08:15.095Z,22.70
2023-04-08T03:10:50.418Z,22.25
2023-04-08T03:13:38.181Z,21.98
2023-04-08T03:16:12.341Z,22.70
2023-04-08T03:19:01.051Z,23.63
2023-04-08T03:21:34.285Z,24.08
2023-04-08T03:24:21.195Z,23.85
2023-04-08T03:26:54.281Z,23.33
2023-04-08T03:29:41.118Z,23.60
2023-04-08T03:32:14.281Z,24.23
2023-04-08T03:35:01.181Z,25.40
2023-04-08T03:37:41.184Z,24.10
2023-04-08T03:40:35.170Z,24.95
2023-04-08T03:43:29.175Z,26.42
2023-04-08T03:46:23.218Z,26.70
2023-04-08T03:49:10.149Z,29.95
2023-04-08T03:51:50.160Z,28.85
2023-04-08T03:54:37.183Z,27.00
2023-04-08T03:57:18.156Z,24.23
2023-04-08T04:00:12.150Z,26.30
2023-04-08T04:02:59.224Z,26.33
2023-04-08T04:05:32.281Z,25.63
2023-04-08T04:08:19.182Z,24.80
2023-04-08T04:10:59.167Z,24.95
2023-04-08T04:13:53.257Z,24.10
2023-04-08T04:16:40.157Z,24.30
2023-04-08T04:19:13.349Z,23.40
2023-04-08T04:22:00.144Z,24.13
2023-04-08T04:24:40.165Z,24.38
2023-04-08T04:27:34.165Z,23.23
2023-04-08T04:30:28.166Z,22.67
2023-04-08T04:33:15.176Z,23.40
2023-04-08T04:35:55.291Z,22.52
2023-04-08T04:38:52.157Z,22.17
2023-04-08T04:41:39.173Z,20.00
2023-04-08T04:44:20.164Z,21.30
2023-04-08T04:47:14.163Z,22.25
2023-04-08T04:50:01.178Z,21.33
2023-04-08T04:52:34.280Z,21.52
2023-04-08T04:55:22.182Z,21.17
2023-04-08T04:58:03.170Z,21.67
2023-04-08T05:00:50.160Z,22.35
2023-04-08T05:03:23.344Z,22.33
2023-04-08T05:06:10.168Z,23.77
2023-04-08T05:08:43.331Z,24.70
2023-04-08T05:11:30.187Z,22.10
2023-04-08T05:14:03.266Z,20.13
2023-04-08T05:16:53.232Z,20.90
2023-04-08T05:19:26.356Z,19.90
2023-04-08T05:22:13.242Z,19.52
2023-04-08T05:24:46.356Z,18.55
2023-04-08T05:27:34.176Z,20.33
2023-04-08T05:30:07.359Z,20.27
2023-04-08T05:32:54.194Z,18.08
2023-04-08T05:35:27.372Z,20.05
2023-04-08T05:38:14.187Z,19.90
2023-04-08T05:40:47.547Z,18.92
2023-04-08T05:43:34.196Z,19.55
2023-04-08T05:46:14.206Z,18.58
2023-04-08T05:49:08.253Z,20.27
2023-04-08T05:51:58.159Z,19.08
2023-04-08T05:54:31.329Z,18.35
2023-04-08T05:57:18.213Z,15.18
2023-04-08T05:59:51.345Z,15.35
2023-04-08T06:02:38.504Z,18.85
2023-04-08T06:05:12.376Z,17.42
2023-04-08T06:07:59.227Z,18.52
2023-04-08T06:10:39.293Z,18.23
2023-04-08T06:13:33.225Z,16.73
2023-04-08T06:16:23.343Z,17.20
2023-04-08T06:18:56.334Z,17.58
2023-04-08T06:21:43.257Z,17.27
2023-04-08T06:24:23.235Z,17.77
2023-04-08T06:27:10.242Z,18.23
2023-04-08T06:29:43.458Z,19.58
2023-04-08T06:32:30.225Z,18.02
2023-04-08T06:35:10.247Z,17.13
2023-04-08T06:37:57.213Z,20.25
2023-04-08T06:40:30.336Z,21.02
2023-04-08T06:43:17.222Z,19.33
2023-04-08T06:45:57.269Z,21.15
2023-04-08T06:48:51.619Z,18.60
2023-04-08T06:51:38.184Z,17.75
2023-04-08T06:54:18.261Z,17.33
2023-04-08T06:57:14.096Z,17.90
2023-04-08T07:00:08.244Z,17.98
2023-04-08T07:03:02.360Z,18.50
2023-04-08T07:05:52.352Z,18.15
2023-04-08T07:08:25.850Z,17.35
2023-04-08T07:11:12.271Z,17.25
2023-04-08T07:13:45.428Z,16.67
2023-04-08T07:16:32.287Z,16.83
2023-04-08T07:19:05.621Z,15.30
2023-04-08T07:21:52.253Z,15.57
2023-04-08T07:24:28.393Z,17.60
2023-04-08T07:27:15.229Z,17.42
2023-04-08T07:29:55.267Z,16.00
2023-04-08T07:32:49.302Z,16.58
2023-04-08T07:35:40.288Z,15.85
2023-04-08T07:38:13.532Z,17.52
2023-04-08T07:41:00.249Z,16.75
2023-04-08T07:43:34.591Z,14.93
2023-04-08T07:46:21.335Z,16.88
2023-04-08T07:48:54.369Z,15.82
2023-04-08T07:51:41.278Z,14.95
2023-04-08T07:54:17.384Z,15.10
2023-04-08T07:57:08.254Z,15.85
2023-04-08T07:59:41.622Z,16.35
2023-04-08T08:02:28.407Z,15.60
2023-04-08T08:05:03.619Z,13.85
2023-04-08T08:07:51.278Z,14.93
2023-04-08T08:10:24.366Z,14.00
2023-04-08T08:13:13.298Z,14.68
2023-04-08T08:15:46.380Z,14.55
2023-04-08T08:18:34.250Z,15.40
2023-04-08T08:21:08.461Z,15.18
2023-04-08T08:23:56.257Z,17.08
2023-04-08T08:26:38.265Z,15.98
2023-04-08T08:29:32.257Z,13.82
2023-04-08T08:32:21.783Z,15.30
2023-04-08T08:34:55.412Z,14.25
2023-04-08T08:37:44.308Z,14.95
2023-04-08T08:40:18.340Z,15.23
2023-04-08T08:43:08.295Z,13.73
2023-04-08T08:45:54.302Z,13.27
2023-04-08T08:48:48.310Z,16.35
2023-04-08T08:51:43.301Z,16.67
2023-04-08T08:54:31.300Z,16.73
2023-04-08T08:57:12.306Z,15.93
2023-04-08T09:00:07.288Z,16.40
2023-04-08T09:02:54.460Z,16.25
2023-04-08T09:05:29.719Z,16.20
2023-04-08T09:08:30.322Z,17.05
2023-04-08T09:11:26.306Z,15.30
2023-04-08T09:14:24.345Z,16.23
2023-04-08T09:17:08.305Z,17.25
2023-04-08T09:20:20.263Z,16.60
2023-04-08T09:23:09.288Z,15.80
2023-04-08T09:25:42.582Z,15.60
2023-04-08T09:28:29.298Z,16.33
2023-04-08T09:31:02.367Z,16.60
2023-04-08T09:33:50.552Z,17.33
2023-04-08T09:36:24.418Z,17.45
2023-04-08T09:39:11.305Z,17.60
2023-04-08T09:41:53.373Z,18.38
2023-04-08T09:44:49.310Z,19.67
2023-04-08T09:47:51.294Z,20.42
2023-04-08T09:50:46.309Z,17.88
2023-04-08T09:53:52.477Z,19.13
2023-04-08T09:56:57.296Z,20.13
2023-04-08T09:59:45.338Z,18.77
2023-04-08T10:02:30.530Z,20.35
2023-04-08T10:05:20.312Z,21.45
2023-04-08T10:07:55.393Z,20.42
2023-04-08T10:10:47.774Z,20.83
2023-04-08T10:13:29.346Z,21.77
2023-04-08T10:16:31.378Z,21.05
2023-04-08T10:19:04.413Z,21.40
2023-04-08T10:21:56.415Z,22.30
2023-04-08T10:24:29.685Z,21.02
2023-04-08T10:27:48.670Z,20.70
2023-04-08T10:30:41.304Z,20.42
2023-04-08T10:33:34.961Z,20.83
2023-04-08T10:36:19.452Z,21.27
2023-04-08T10:39:06.307Z,21.50
2023-04-08T10:41:48.599Z,21.83
2023-04-08T10:44:35.327Z,21.98
2023-04-08T10:47:08.422Z,21.02
2023-04-08T10:49:56.299Z,20.02
2023-04-08T10:52:36.315Z,22.73
2023-04-08T10:55:25.314Z,19.30
2023-04-08T10:57:59.340Z,19.02
2023-04-08T11:00:47.306Z,19.10
2023-04-08T11:03:20.754Z,20.40
2023-04-08T11:06:09.314Z,21.23
2023-04-08T11:08:44.788Z,18.05
2023-04-08T11:11:36.307Z,19.17
2023-04-08T11:14:17.312Z,17.85
2023-04-08T11:17:14.352Z,22.77
2023-04-08T11:20:01.328Z,22.85
2023-04-08T11:22:42.361Z,21.80
2023-04-08T11:25:29.343Z,19.77
2023-04-08T11:28:02.964Z,17.40
2023-04-08T11:30:52.385Z,21.25
2023-04-08T11:33:25.427Z,19.90
2023-04-08T11:36:12.394Z,19.33
2023-04-08T11:38:47.985Z,21.25
2023-04-08T11:41:44.357Z,20.10
2023-04-08T11:44:34.609Z,21.67
2023-04-08T11:47:30.488Z,22.85
2023-04-08T11:50:26.360Z,21.23
2023-04-08T11:53:38.360Z,21.25
2023-04-08T11:56:34.642Z,21.98
2023-04-08T11:59:07.422Z,23.55
2023-04-08T12:01:54.393Z,23.02
2023-04-08T12:04:27.585Z,23.85
2023-04-08T12:07:14.386Z,25.65
2023-04-08T12:09:47.466Z,25.17
2023-04-08T12:12:34.365Z,24.85
2023-04-08T12:15:14.350Z,22.83
2023-04-08T12:18:10.417Z,25.63
2023-04-08T12:21:04.374Z,23.75
2023-04-08T12:23:51.568Z,22.20
2023-04-08T12:26:32.347Z,24.80
2023-04-08T12:29:26.354Z,24.48
2023-04-08T12:32:13.358Z,24.35
2023-04-08T12:34:46.429Z,25.42
2023-04-08T12:37:34.386Z,24.98
2023-04-08T12:40:14.367Z,27.80
2023-04-08T12:43:01.344Z,25.23
2023-04-08T12:45:41.349Z,25.77
2023-04-08T12:48:35.345Z,25.75
2023-04-08T12:51:29.449Z,26.65
2023-04-08T12:54:16.387Z,26.88
2023-04-08T12:56:50.492Z,26.77
2023-04-08T12:59:38.399Z,31.98
2023-04-08T13:02:11.449Z,27.73
2023-04-08T13:05:00.395Z,27.17
2023-04-08T13:07:33.474Z,26.38
2023-04-08T13:10:20.365Z,24.23
2023-04-08T13:12:53.448Z,24.75
2023-04-08T13:15:40.363Z,26.73
2023-04-08T13:18:13.569Z,26.45
2023-04-08T13:21:01.441Z,27.10
2023-04-08T13:23:34.692Z,25.95
2023-04-08T13:26:21.495Z,24.63
2023-04-08T13:29:02.060Z,25.27
2023-04-08T13:31:57.772Z,25.90
2023-04-08T13:34:51.572Z,26.85
2023-04-08T13:37:38.394Z,25.77
2023-04-08T13:40:13.393Z,25.45
2023-04-08T13:43:00.436Z,25.30
2023-04-08T13:45:33.677Z,25.05
2023-04-08T13:48:27.580Z,25.70
2023-04-08T13:51:14.373Z,24.33
2023-04-08T13:53:47.467Z,25.83
2023-04-08T13:56:34.374Z,23.88
2023-04-08T13:59:14.671Z,22.40
2023-04-08T14:02:09.080Z,22.42
2023-04-08T14:04:57.018Z,22.40
2023-04-08T14:07:31.237Z,22.38
2023-04-08T14:10:18.473Z,21.45
2023-04-08T14:12:59.025Z,22.05
2023-04-08T14:15:53.535Z,22.02
2023-04-08T14:18:40.403Z,23.23
2023-04-08T14:21:15.764Z,20.67
2023-04-08T14:24:02.870Z,21.85
2023-04-08T14:26:43.441Z,22.77
2023-04-08T14:29:30.429Z,20.30
2023-04-08T14:32:10.558Z,20.52
2023-04-08T14:35:05.509Z,21.33
2023-04-08T14:37:53.675Z,19.80
2023-04-08T14:40:36.503Z,20.77
2023-04-08T14:43:31.701Z,21.38
2023-04-08T14:46:18.761Z,21.35
2023-04-08T14:48:59.804Z,20.98
2023-04-08T14:51:53.769Z,22.73
2023-04-08T14:54:48.192Z,22.02
2023-04-08T14:57:35.760Z,24.63
2023-04-08T15:00:17.106Z,24.25
2023-04-08T15:03:12.195Z,23.92
2023-04-08T15:05:59.518Z,24.08
2023-04-08T15:08:39.531Z,24.35
2023-04-08T15:11:33.616Z,21.83
2023-04-08T15:14:20.720Z,22.17
2023-04-08T15:16:54.854Z,23.58
2023-04-08T15:19:42.680Z,23.77
2023-04-08T15:22:16.542Z,23.27
2023-04-08T15:25:04.204Z,22.58
2023-04-08T15:27:38.895Z,24.33
2023-04-08T15:30:30.698Z,25.10
2023-04-08T15:33:04.927Z,25.55
2023-04-08T15:35:55.453Z,24.58
2023-04-08T15:38:28.867Z,26.20
2023-04-08T15:41:22.436Z,26.05
2023-04-08T15:43:56.578Z,26.98
2023-04-08T15:46:43.511Z,27.58
2023-04-08T15:49:17.001Z,27.52
2023-04-08T15:52:03.661Z,25.45
2023-04-08T15:54:44.598Z,25.85
2023-04-08T15:57:38.725Z,25.40
2023-04-08T16:00:25.518Z,25.85
2023-04-08T16:02:58.730Z,26.42
2023-04-08T16:05:46.445Z,29.52
2023-04-08T16:08:26.794Z,28.90
2023-04-08T16:11:20.736Z,26.27
2023-04-08T16:14:14.483Z,25.27
2023-04-08T16:17:08.417Z,27.75
2023-04-08T16:20:04.679Z,34.97
2023-04-08T16:22:58.623Z,34.00
2023-04-08T16:25:45.689Z,45.38
2023-04-08T16:28:26.430Z,40.40
2023-04-08T16:31:20.453Z,35.53
2023-04-08T16:34:14.714Z,29.05
2023-04-08T16:37:01.471Z,30.52
2023-04-08T16:39:34.550Z,28.02
2023-04-08T16:42:21.445Z,26.85
2023-04-08T16:44:54.541Z,27.75
2023-04-08T16:47:51.460Z,26.45
2023-04-08T16:50:38.436Z,27.90
2023-04-08T16:53:11.767Z,29.63
2023-04-08T16:55:58.432Z,28.10
2023-04-08T16:58:31.731Z,28.88
2023-04-08T17:01:20.464Z,26.08
2023-04-08T17:03:53.750Z,28.35
2023-04-08T17:06:43.467Z,27.73
2023-04-08T17:09:17.581Z,28.45
2023-04-08T17:12:04.447Z,28.35
2023-04-08T17:14:44.439Z,25.60
2023-04-08T17:17:31.470Z,26.10
2023-04-08T17:20:05.256Z,26.20
2023-04-08T17:22:52.445Z,25.58
2023-04-08T17:25:25.689Z,26.63
2023-04-08T17:28:12.456Z,27.13
2023-04-08T17:30:45.704Z,27.27
2023-04-08T17:33:32.442Z,26.48
2023-04-08T17:36:06.067Z,26.48
2023-04-08T17:38:54.470Z,26.85
2023-04-08T17:41:39.211Z,27.40
2023-04-08T17:44:28.471Z,28.38
2023-04-08T17:47:04.563Z,26.38
2023-04-08T17:49:58.552Z,28.35
2023-04-08T17:52:45.718Z,28.85
2023-04-08T17:55:20.619Z,25.70
2023-04-08T17:58:07.478Z,28.77
2023-04-08T18:00:40.712Z,29.05
2023-04-08T18:03:27.559Z,28.48
2023-04-08T18:06:00.611Z,29.73
2023-04-08T18:08:47.462Z,29.20
2023-04-08T18:11:22.082Z,29.88
2023-04-08T18:14:09.475Z,28.88
2023-04-08T18:16:42.621Z,27.70
2023-04-08T18:19:32.496Z,27.88
2023-04-08T18:22:05.719Z,29.58
2023-04-08T18:24:52.715Z,29.75
2023-04-08T18:27:32.470Z,29.83
2023-04-08T18:30:19.486Z,27.02
2023-04-08T18:32:52.667Z,30.88
2023-04-08T18:35:39.499Z,30.00
2023-04-08T18:38:12.565Z,31.02
2023-04-08T18:40:59.483Z,32.05
2023-04-08T18:43:32.573Z,32.28
2023-04-08T18:46:19.508Z,31.05
2023-04-08T18:49:00.539Z,31.30
2023-04-08T18:51:58.991Z,33.35
2023-04-08T18:54:42.485Z,31.45
2023-04-08T18:57:29.555Z,32.10
2023-04-08T19:00:02.954Z,31.20
2023-04-08T19:02:49.584Z,32.63
2023-04-08T19:05:22.569Z,34.40
2023-04-08T19:08:09.520Z,34.70
2023-04-08T19:10:42.731Z,34.35
2023-04-08T19:13:30.485Z,34.80
2023-04-08T19:16:10.590Z,32.90
2023-04-08T19:19:04.523Z,35.42
2023-04-08T19:21:51.513Z,33.15
2023-04-08T19:24:24.613Z,32.85
2023-04-08T19:27:12.549Z,33.58
2023-04-08T19:29:46.064Z,36.05
2023-04-08T19:32:33.485Z,35.17
2023-04-08T19:35:06.789Z,33.45
2023-04-08T19:37:53.548Z,35.92
2023-04-08T19:40:33.533Z,39.08
2023-04-08T19:43:24.602Z,41.35
2023-04-08T19:46:02.492Z,40.67
2023-04-08T19:48:59.714Z,39.33
2023-04-08T19:51:46.487Z,41.30
2023-04-08T19:54:19.622Z,38.80
2023-04-08T19:57:07.498Z,35.72
2023-04-08T19:59:40.601Z,36.78
2023-04-08T20:02:28.696Z,37.45
2023-04-08T20:05:03.338Z,35.20
2023-04-08T20:07:50.621Z,36.17
2023-04-08T20:10:23.623Z,35.17
2023-04-08T20:13:10.582Z,37.13
2023-04-08T20:15:50.572Z,34.33
2023-04-08T20:18:37.507Z,34.63
2023-04-08T20:21:20.524Z,34.33
2023-04-08T20:24:14.505Z,34.50
2023-04-08T20:27:01.583Z,33.85
2023-04-08T20:29:34.713Z,31.17
2023-04-08T20:32:21.525Z,34.42
2023-04-08T20:34:55.717Z,34.80
2023-04-08T20:37:43.558Z,32.88
2023-04-08T20:40:23.530Z,34.20
2023-04-08T20:43:17.519Z,33.22
2023-04-08T20:46:04.673Z,33.40
2023-04-08T20:48:37.674Z,31.33
2023-04-08T20:51:24.645Z,30.27
2023-04-08T20:53:58.464Z,28.25
2023-04-08T20:56:46.662Z,30.55
2023-04-08T20:59:20.833Z,32.40
2023-04-08T21:02:07.782Z,32.38
2023-04-08T21:04:47.495Z,33.53
2023-04-08T21:07:41.574Z,33.88
2023-04-08T21:10:35.587Z,32.80
2023-04-08T21:13:29.680Z,33.45
2023-04-08T21:16:16.669Z,32.30
2023-04-08T21:18:56.558Z,31.65
2023-04-08T21:21:50.552Z,32.45
2023-04-08T21:24:37.642Z,31.58
2023-04-08T21:27:10.713Z,31.33
2023-04-08T21:29:58.524Z,31.25
2023-04-08T21:32:38.555Z,33.30
2023-04-08T21:35:25.544Z,34.17
2023-04-08T21:37:58.737Z,39.05
2023-04-08T21:40:45.543Z,38.50
2023-04-08T21:43:18.683Z,34.58
2023-04-08T21:46:05.579Z,32.75
2023-04-08T21:48:45.588Z,32.42
2023-04-08T21:51:32.552Z,30.85
2023-04-08T21:54:05.674Z,34.10
2023-04-08T21:56:52.607Z,32.72
2023-04-08T21:59:26.040Z,32.50
2023-04-08T22:02:12.725Z,35.97
2023-04-08T22:04:46.680Z,38.45
2023-04-08T22:07:33.617Z,34.63
2023-04-08T22:10:06.879Z,34.85
2023-04-08T22:12:53.551Z,34.00
2023-04-08T22:15:33.646Z,34.35
2023-04-08T22:18:27.581Z,33.35
2023-04-08T22:21:14.613Z,34.75
2023-04-08T22:23:47.785Z,35.05
2023-04-08T22:26:34.574Z,32.28
2023-04-08T22:29:07.753Z,29.70
2023-04-08T22:31:54.562Z,31.88
2023-04-08T22:34:27.709Z,33.25
2023-04-08T22:37:14.616Z,33.33
2023-04-08T22:39:47.805Z,38.25
2023-04-08T22:42:34.578Z,38.72
2023-04-08T22:45:07.798Z,37.40
2023-04-08T22:47:54.627Z,42.72
2023-04-08T22:50:27.742Z,42.47
2023-04-08T22:53:14.581Z,40.47
2023-04-08T22:55:47.680Z,39.40
2023-04-08T22:58:35.566Z,39.63
2023-04-08T23:01:08.723Z,39.38
2023-04-08T23:03:56.651Z,36.35
2023-04-08T23:06:36.566Z,37.15
2023-04-08T23:09:31.606Z,37.83
2023-04-08T23:12:18.568Z,36.70
2023-04-08T23:14:51.713Z,37.05
2023-04-08T23:17:38.588Z,36.63
2023-04-08T23:20:12.664Z,35.20
2023-04-08T23:22:59.584Z,36.45
2023-04-08T23:25:33.159Z,35.20
2023-04-08T23:28:19.585Z,35.15
2023-04-08T23:30:52.785Z,37.70
2023-04-08T23:33:39.561Z,37.83
2023-04-08T23:36:17.709Z,38.72
2023-04-08T23:39:23.575Z,38.40
2023-04-08T23:41:57.115Z,37.58
2023-04-08T23:45:02.602Z,33.89
2023-04-08T23:47:57.676Z,32.53
2023-04-08T23:50:51.605Z,34.20
2023-04-08T23:53:38.591Z,34.72
2023-04-08T23:56:13.696Z,34.63
2023-04-08T23:59:00.594Z,37.13
